createdAt,value
2023-03-03T00:00:58.536Z,19.50
2023-03-03T00:03:27.319Z,20.70
2023-03-03T00:05:54.569Z,24.45
2023-03-03T00:08:22.721Z,21.15
2023-03-03T00:10:50.080Z,19.02
2023-03-03T00:13:27.038Z,17.85
2023-03-03T00:15:58.206Z,15.50
2023-03-03T00:18:35.596Z,15.50
2023-03-03T00:21:08.976Z,16.70
2023-03-03T00:23:38.646Z,15.45
2023-03-03T00:26:37.120Z,16.35
2023-03-03T00:29:23.245Z,15.32
2023-03-03T00:31:50.399Z,16.77
2023-03-03T00:34:28.361Z,16.60
2023-03-03T00:36:57.379Z,16.50
2023-03-03T00:39:37.432Z,18.90
2023-03-03T00:42:17.224Z,19.92
2023-03-03T00:44:45.137Z,20.05
2023-03-03T00:47:29.269Z,18.58
2023-03-03T00:50:25.056Z,17.02
2023-03-03T00:53:17.078Z,19.45
2023-03-03T00:55:44.874Z,19.48
2023-03-03T00:58:11.723Z,22.27
2023-03-03T01:00:39.578Z,19.23
2023-03-03T01:03:09.312Z,21.83
2023-03-03T01:05:36.804Z,19.48
2023-03-03T01:08:04.476Z,20.25
2023-03-03T01:10:34.373Z,18.52
2023-03-03T01:13:01.294Z,23.48
2023-03-03T01:15:28.194Z,25.95
2023-03-03T01:17:55.603Z,24.52
2023-03-03T01:20:22.868Z,20.35
2023-03-03T01:22:49.737Z,23.52
2023-03-03T01:25:16.733Z,25.88
2023-03-03T01:27:43.536Z,24.17
2023-03-03T01:30:23.150Z,27.65
2023-03-03T01:36:13.614Z,23.60
2023-03-03T01:38:40.376Z,24.73
2023-03-03T01:41:07.155Z,32.70
2023-03-03T01:43:34.366Z,26.77
2023-03-03T01:46:01.169Z,27.15
2023-03-03T01:48:36.773Z,19.75
2023-03-03T01:51:12.355Z,19.80
2023-03-03T01:53:43.095Z,21.20
2023-03-03T01:56:10.665Z,18.67
2023-03-03T01:58:43.381Z,18.25
2023-03-03T02:01:15.755Z,17.10
2023-03-03T02:03:43.974Z,20.83
2023-03-03T02:06:15.508Z,19.83
2023-03-03T02:09:00.202Z,17.50
2023-03-03T02:11:29.666Z,17.95
2023-03-03T02:13:56.434Z,20.63
2023-03-03T02:16:23.383Z,16.98
2023-03-03T02:18:50.318Z,18.40
2023-03-03T02:21:20.087Z,19.65
2023-03-03T02:24:14.093Z,20.85
2023-03-03T02:26:41.916Z,19.30
2023-03-03T02:29:10.196Z,18.40
2023-03-03T02:31:38.475Z,15.98
2023-03-03T02:34:05.496Z,17.02
2023-03-03T02:36:36.221Z,18.77
2023-03-03T02:39:21.401Z,21.13
2023-03-03T02:42:10.210Z,15.82
2023-03-03T02:44:37.079Z,19.73
2023-03-03T02:47:04.192Z,21.02
2023-03-03T02:49:33.193Z,18.50
2023-03-03T02:52:02.046Z,17.13
2023-03-03T02:54:30.940Z,15.77
2023-03-03T02:56:59.245Z,18.17
2023-03-03T02:59:26.105Z,19.33
2023-03-03T03:01:54.522Z,16.27
2023-03-03T03:04:24.445Z,17.33
2023-03-03T03:06:51.972Z,16.55
2023-03-03T03:09:21.223Z,19.42
2023-03-03T03:11:48.042Z,15.85
2023-03-03T03:14:15.609Z,17.33
2023-03-03T03:16:42.566Z,17.65
2023-03-03T03:19:09.630Z,16.92
2023-03-03T03:21:36.444Z,15.70
2023-03-03T03:24:03.536Z,16.55
2023-03-03T03:26:30.554Z,16.60
2023-03-03T03:28:57.658Z,15.45
2023-03-03T03:31:24.506Z,15.68
2023-03-03T03:33:52.682Z,14.77
2023-03-03T03:36:19.881Z,15.35
2023-03-03T03:38:46.703Z,20.65
2023-03-03T03:41:13.927Z,17.30
2023-03-03T03:43:41.199Z,16.38
2023-03-03T03:46:08.664Z,16.85
2023-03-03T03:48:35.702Z,15.30
2023-03-03T03:51:02.591Z,16.42
2023-03-03T03:53:29.386Z,15.98
2023-03-03T03:55:56.444Z,16.38
2023-03-03T03:58:23.298Z,17.35
2023-03-03T04:00:50.071Z,18.58
2023-03-03T04:03:17.060Z,16.85
2023-03-03T04:05:44.433Z,16.13
2023-03-03T04:08:11.806Z,16.55
2023-03-03T04:10:39.021Z,17.73
2023-03-03T04:13:05.807Z,17.80
2023-03-03T04:15:32.658Z,16.10
2023-03-03T04:17:59.492Z,16.80
2023-03-03T04:20:26.775Z,16.67
2023-03-03T04:22:53.588Z,18.95
2023-03-03T04:25:20.452Z,21.98
2023-03-03T04:27:47.207Z,17.55
2023-03-03T04:30:15.947Z,15.80
2023-03-03T04:32:42.997Z,17.55
2023-03-03T04:35:10.814Z,17.10
2023-03-03T04:37:38.988Z,17.10
2023-03-03T04:40:07.746Z,16.63
2023-03-03T04:42:35.279Z,16.83
2023-03-03T04:45:02.250Z,16.40
2023-03-03T04:47:28.998Z,16.42
2023-03-03T04:49:55.797Z,15.38
2023-03-03T04:52:22.552Z,16.65
2023-03-03T04:54:49.295Z,15.82
2023-03-03T04:57:16.080Z,13.52
2023-03-03T04:59:42.927Z,14.95
2023-03-03T05:02:09.716Z,15.68
2023-03-03T05:04:36.929Z,16.33
2023-03-03T05:07:04.080Z,15.93
2023-03-03T05:09:31.102Z,17.17
2023-03-03T05:11:57.882Z,15.77
2023-03-03T05:14:24.731Z,18.55
2023-03-03T05:16:51.629Z,15.55
2023-03-03T05:19:18.478Z,16.95
2023-03-03T05:21:45.377Z,15.57
2023-03-03T05:24:13.945Z,16.60
2023-03-03T05:26:41.140Z,16.35
2023-03-03T05:29:08.556Z,16.83
2023-03-03T05:32:10.199Z,16.85
2023-03-03T05:34:37.060Z,15.27
2023-03-03T05:37:05.515Z,17.67
2023-03-03T05:39:32.873Z,18.17
2023-03-03T05:42:00.272Z,17.27
2023-03-03T05:44:27.593Z,21.80
2023-03-03T05:46:56.608Z,18.20
2023-03-03T05:49:23.587Z,19.25
2023-03-03T05:51:50.427Z,18.75
2023-03-03T05:54:17.172Z,18.55
2023-03-03T05:56:43.942Z,17.73
2023-03-03T05:59:10.721Z,23.55
2023-03-03T06:01:37.574Z,19.13
2023-03-03T06:04:04.444Z,22.35
2023-03-03T06:06:31.314Z,22.77
2023-03-03T06:08:58.030Z,20.75
2023-03-03T06:11:24.891Z,17.05
2023-03-03T06:13:51.696Z,18.17
2023-03-03T06:16:19.104Z,19.35
2023-03-03T06:18:46.066Z,19.80
2023-03-03T06:21:12.855Z,24.05
2023-03-03T06:23:39.766Z,20.98
2023-03-03T06:26:06.706Z,20.73
2023-03-03T06:28:33.598Z,19.75
2023-03-03T06:31:00.402Z,24.35
2023-03-03T06:37:07.360Z,18.13
2023-03-03T06:39:34.174Z,21.20
2023-03-03T06:42:01.047Z,23.23
2023-03-03T06:44:28.960Z,23.77
2023-03-03T06:46:57.991Z,23.77
2023-03-03T06:49:24.872Z,24.02
2023-03-03T06:51:51.718Z,22.88
2023-03-03T06:54:21.197Z,28.13
2023-03-03T06:56:49.843Z,25.08
2023-03-03T06:59:17.842Z,24.27
2023-03-03T07:01:46.644Z,24.10
2023-03-03T07:04:19.849Z,24.98
2023-03-03T07:06:46.717Z,27.67
2023-03-03T07:09:23.979Z,24.63
2023-03-03T07:11:52.553Z,27.15
2023-03-03T07:14:20.874Z,25.27
2023-03-03T07:16:51.661Z,27.73
2023-03-03T07:19:23.597Z,25.73
2023-03-03T07:21:51.820Z,26.30
2023-03-03T07:24:18.586Z,27.70
2023-03-03T07:26:45.453Z,27.15
2023-03-03T07:29:30.586Z,25.17
2023-03-03T07:31:59.276Z,27.65
2023-03-03T07:34:47.679Z,26.75
2023-03-03T07:37:36.118Z,28.55
2023-03-03T07:40:22.148Z,28.13
2023-03-03T07:42:49.634Z,28.73
2023-03-03T07:45:32.440Z,27.48
2023-03-03T07:48:25.153Z,29.20
2023-03-03T07:50:52.187Z,25.77
2023-03-03T07:53:29.065Z,26.73
2023-03-03T07:55:56.374Z,25.98
2023-03-03T07:58:33.861Z,26.08
2023-03-03T08:01:42.558Z,28.15
2023-03-03T08:04:17.510Z,30.40
2023-03-03T08:09:29.752Z,24.63
2023-03-03T08:12:27.809Z,24.85
2023-03-03T08:14:56.596Z,25.52
2023-03-03T08:17:26.598Z,24.67
2023-03-03T08:19:55.336Z,25.75
2023-03-03T08:22:37.853Z,25.35
2023-03-03T08:25:04.962Z,23.50
2023-03-03T08:27:31.723Z,24.13
2023-03-03T08:29:58.466Z,27.10
2023-03-03T08:32:25.453Z,24.63
2023-03-03T08:34:52.450Z,24.05
2023-03-03T08:37:19.236Z,25.00
2023-03-03T08:39:46.112Z,25.33
2023-03-03T08:42:15.236Z,27.08
2023-03-03T08:44:43.072Z,24.48
2023-03-03T08:47:09.902Z,23.35
2023-03-03T08:49:36.643Z,22.17
2023-03-03T08:52:03.887Z,23.83
2023-03-03T08:54:30.770Z,23.55
2023-03-03T08:56:57.534Z,24.15
2023-03-03T08:59:24.280Z,20.42
2023-03-03T09:01:51.054Z,23.45
2023-03-03T09:04:17.942Z,22.95
2023-03-03T09:06:44.748Z,23.52
2023-03-03T09:09:11.576Z,22.17
2023-03-03T09:11:38.623Z,25.25
2023-03-03T09:14:14.476Z,22.95
2023-03-03T09:16:51.835Z,24.00
2023-03-03T09:19:32.526Z,23.27
2023-03-03T09:22:18.379Z,24.58
2023-03-03T09:24:47.495Z,23.85
2023-03-03T09:27:41.569Z,24.13
2023-03-03T09:30:42.638Z,23.73
2023-03-03T09:33:24.442Z,23.40
2023-03-03T09:36:11.441Z,21.58
2023-03-03T09:38:43.759Z,22.67
2023-03-03T09:41:35.279Z,23.27
2023-03-03T09:44:12.146Z,22.98
2023-03-03T09:47:09.556Z,24.95
2023-03-03T09:50:02.661Z,24.77
2023-03-03T09:52:51.354Z,24.05
2023-03-03T09:55:47.069Z,25.05
2023-03-03T09:58:19.702Z,23.10
2023-03-03T10:01:07.643Z,29.85
2023-03-03T10:03:46.561Z,23.58
2023-03-03T10:06:16.199Z,24.90
2023-03-03T10:08:58.132Z,25.02
2023-03-03T10:11:46.730Z,25.58
2023-03-03T10:14:35.500Z,23.67
2023-03-03T10:17:09.303Z,22.73
2023-03-03T10:19:41.210Z,24.15
2023-03-03T10:22:30.285Z,22.38
2023-03-03T10:25:32.430Z,22.27
2023-03-03T10:28:08.171Z,21.23
2023-03-03T10:31:04.742Z,23.60
2023-03-03T10:33:43.025Z,22.35
2023-03-03T10:36:09.992Z,22.00
2023-03-03T10:39:11.854Z,22.33
2023-03-03T10:41:38.646Z,22.48
2023-03-03T10:44:29.519Z,21.38
2023-03-03T10:47:17.399Z,21.52
2023-03-03T10:49:52.963Z,22.75
2023-03-03T10:52:40.028Z,22.13
2023-03-03T10:55:19.108Z,23.13
2023-03-03T11:20:25.503Z,18.77
2023-03-03T11:23:23.176Z,19.15
2023-03-03T11:26:02.176Z,16.52
2023-03-03T11:28:46.892Z,15.95
2023-03-03T11:31:28.785Z,16.67
2023-03-03T11:34:19.972Z,16.95
2023-03-03T11:37:00.568Z,17.30
2023-03-03T11:39:27.778Z,16.02
2023-03-03T11:42:24.017Z,16.45
2023-03-03T11:44:59.729Z,15.95
2023-03-03T11:47:39.395Z,15.18
2023-03-03T11:50:15.038Z,14.98
2023-03-03T11:53:06.120Z,14.93
2023-03-03T11:55:41.899Z,14.85
2023-03-03T11:58:39.075Z,14.95
2023-03-03T12:01:29.882Z,15.20
2023-03-03T12:04:21.059Z,15.20
2023-03-03T12:07:12.853Z,14.15
2023-03-03T12:09:56.400Z,14.25
2023-03-03T12:15:32.909Z,13.48
2023-03-03T12:18:11.621Z,13.57
2023-03-03T12:20:56.344Z,13.70
2023-03-03T12:23:36.907Z,12.90
2023-03-03T12:26:06.672Z,13.20
2023-03-03T12:28:42.279Z,13.43
2023-03-03T12:31:12.079Z,13.40
2023-03-03T12:33:44.436Z,11.65
2023-03-03T12:36:14.464Z,10.15
2023-03-03T12:39:01.571Z,10.00
2023-03-03T12:41:46.467Z,11.25
2023-03-03T12:44:47.392Z,10.57
2023-03-03T12:47:39.265Z,10.80
2023-03-03T12:50:27.391Z,11.27
2023-03-03T12:53:12.981Z,11.02
2023-03-03T12:58:34.235Z,10.95
2023-03-03T13:01:06.748Z,10.95
2023-03-03T13:06:10.087Z,11.57
2023-03-03T13:09:17.831Z,12.68
2023-03-03T13:12:15.910Z,11.60
2023-03-03T13:15:05.192Z,11.95
2023-03-03T13:18:00.995Z,12.18
2023-03-03T13:20:50.888Z,13.52
2023-03-03T13:23:34.796Z,11.25
2023-03-03T13:26:11.665Z,9.95
2023-03-03T13:28:51.203Z,10.88
2023-03-03T13:31:25.148Z,9.30
2023-03-03T13:33:57.567Z,9.25
2023-03-03T13:36:52.331Z,8.60
2023-03-03T13:39:38.501Z,9.13
2023-03-03T13:42:29.411Z,7.18
2023-03-03T13:44:57.663Z,7.60
2023-03-03T13:47:27.424Z,7.65
2023-03-03T13:50:23.099Z,6.75
2023-03-03T13:53:37.257Z,7.47
2023-03-03T13:56:39.467Z,6.25
2023-03-03T13:59:21.609Z,6.40
2023-03-03T14:02:08.653Z,5.15
2023-03-03T14:05:00.849Z,5.45
2023-03-03T14:07:37.424Z,5.32
2023-03-03T14:10:30.253Z,4.53
2023-03-03T14:13:13.080Z,5.35
2023-03-03T14:16:05.803Z,4.95
2023-03-03T14:18:56.745Z,5.40
2023-03-03T14:21:53.863Z,4.68
2023-03-03T14:24:23.075Z,6.85
2023-03-03T14:26:53.051Z,5.75
2023-03-03T14:29:29.177Z,5.15
2023-03-03T14:31:57.863Z,5.38
2023-03-03T14:34:33.683Z,5.85
2023-03-03T14:37:26.244Z,4.55
2023-03-03T14:40:22.324Z,5.75
2023-03-03T14:42:49.172Z,5.95
2023-03-03T14:45:30.859Z,7.03
2023-03-03T14:47:58.207Z,8.10
2023-03-03T14:50:50.580Z,7.80
2023-03-03T14:53:32.321Z,7.88
2023-03-03T14:56:33.715Z,15.98
2023-03-03T14:59:20.630Z,9.50
2023-03-03T15:01:47.905Z,8.38
2023-03-03T15:04:14.672Z,7.50
2023-03-03T15:06:45.500Z,8.45
2023-03-03T15:09:35.630Z,8.50
2023-03-03T15:12:18.291Z,8.65
2023-03-03T15:14:48.003Z,8.45
2023-03-03T15:17:23.762Z,8.90
2023-03-03T15:20:24.506Z,8.57
2023-03-03T15:22:51.327Z,9.05
2023-03-03T15:25:53.204Z,8.38
2023-03-03T15:28:33.160Z,8.52
2023-03-03T15:31:21.517Z,8.23
2023-03-03T15:34:06.570Z,7.38
2023-03-03T15:36:44.706Z,7.13
2023-03-03T15:39:37.126Z,6.63
2023-03-03T15:42:23.936Z,5.60
2023-03-03T15:45:08.670Z,7.03
2023-03-03T15:48:06.263Z,6.70
2023-03-03T15:50:48.394Z,6.50
2023-03-03T15:53:32.984Z,5.82
2023-03-03T15:56:33.024Z,6.05
2023-03-03T15:59:31.345Z,6.47
2023-03-03T16:02:25.590Z,6.07
2023-03-03T16:05:34.734Z,5.80
2023-03-03T16:08:16.175Z,5.45
2023-03-03T16:11:10.627Z,5.85
2023-03-03T16:13:51.590Z,5.53
2023-03-03T16:16:33.564Z,6.47
2023-03-03T16:19:07.717Z,6.32
2023-03-03T16:21:49.435Z,6.03
2023-03-03T16:24:53.314Z,5.25
2023-03-03T16:27:46.627Z,6.20
2023-03-03T16:30:36.949Z,5.82
2023-03-03T16:33:37.826Z,4.95
2023-03-03T16:36:18.106Z,5.22
2023-03-03T16:39:06.581Z,5.18
2023-03-03T16:42:08.530Z,5.63
2023-03-03T16:45:03.904Z,5.00
2023-03-03T16:47:42.882Z,22.63
2023-03-03T16:50:34.368Z,39.53
2023-03-03T16:55:36.341Z,9.90
2023-03-03T16:58:33.902Z,6.57
2023-03-03T17:01:14.885Z,5.53
2023-03-03T17:03:59.790Z,5.60
2023-03-03T17:06:49.560Z,5.93
2023-03-03T17:09:39.737Z,6.32
2023-03-03T17:12:33.832Z,6.72
2023-03-03T17:15:33.366Z,6.05
2023-03-03T17:18:38.821Z,5.93
2023-03-03T17:21:31.531Z,6.22
2023-03-03T17:24:01.086Z,5.38
2023-03-03T17:26:42.608Z,5.97
2023-03-03T17:29:28.038Z,5.18
2023-03-03T17:32:13.852Z,5.78
2023-03-03T17:34:55.652Z,6.32
2023-03-03T17:37:38.403Z,5.85
2023-03-03T17:43:33.126Z,5.45
2023-03-03T17:46:04.620Z,5.50
2023-03-03T17:48:40.848Z,5.63
2023-03-03T17:51:22.630Z,5.85
2023-03-03T17:54:05.746Z,4.65
2023-03-03T17:56:43.873Z,5.28
2023-03-03T17:59:37.330Z,5.22
2023-03-03T18:02:19.551Z,5.45
2023-03-03T18:04:57.932Z,5.10
2023-03-03T18:07:27.747Z,4.00
2023-03-03T18:10:06.625Z,3.90
2023-03-03T18:13:11.070Z,3.45
2023-03-03T18:16:14.757Z,3.30
2023-03-03T18:18:41.463Z,3.55
2023-03-03T18:21:17.072Z,3.97
2023-03-03T18:23:45.868Z,3.55
2023-03-03T18:26:45.289Z,4.18
2023-03-03T18:29:22.517Z,4.45
2023-03-03T18:32:00.021Z,4.20
2023-03-03T18:34:41.733Z,3.08
2023-03-03T18:37:29.814Z,3.88
2023-03-03T18:40:02.654Z,4.10
2023-03-03T18:42:45.668Z,3.63
2023-03-03T18:45:19.351Z,4.32
2023-03-03T18:48:01.704Z,3.58
2023-03-03T18:50:35.328Z,3.88
2023-03-03T18:53:11.031Z,3.67
2023-03-03T18:55:44.865Z,3.30
2023-03-03T18:58:14.440Z,4.03
2023-03-03T19:00:55.014Z,3.10
2023-03-03T19:03:26.413Z,4.95
2023-03-03T19:06:00.183Z,5.65
2023-03-03T19:08:46.201Z,3.95
2023-03-03T19:11:41.028Z,4.22
2023-03-03T19:14:27.649Z,4.38
2023-03-03T19:16:56.542Z,4.68
2023-03-03T19:19:33.675Z,4.88
2023-03-03T19:22:21.731Z,4.68
2023-03-03T19:25:09.701Z,5.05
2023-03-03T19:27:57.597Z,5.30
2023-03-03T19:30:57.774Z,5.22
2023-03-03T19:33:42.505Z,5.22
2023-03-03T19:36:23.122Z,4.82
2023-03-03T19:39:00.443Z,5.22
2023-03-03T19:41:42.797Z,5.30
2023-03-03T19:44:15.418Z,6.93
2023-03-03T19:47:03.321Z,5.50
2023-03-03T19:49:50.630Z,5.68
2023-03-03T19:52:37.012Z,6.13
2023-03-03T19:55:15.727Z,4.78
2023-03-03T19:57:48.039Z,5.10
2023-03-03T20:00:20.763Z,5.78
2023-03-03T20:02:59.903Z,5.97
2023-03-03T20:05:29.973Z,4.22
2023-03-03T20:08:32.148Z,4.95
2023-03-03T20:11:15.953Z,5.80
2023-03-03T20:14:08.242Z,5.63
2023-03-03T20:16:41.723Z,5.43
2023-03-03T20:19:50.496Z,6.30
2023-03-03T20:22:47.862Z,6.00
2023-03-03T20:25:36.520Z,7.10
2023-03-03T20:31:43.521Z,6.05
2023-03-03T20:34:20.478Z,6.22
2023-03-03T20:37:11.959Z,6.18
2023-03-03T20:40:01.809Z,6.78
2023-03-03T20:42:31.752Z,6.60
2023-03-03T20:48:51.976Z,6.32
2023-03-03T20:51:21.812Z,5.95
2023-03-03T21:00:28.763Z,7.05
2023-03-03T21:03:21.841Z,6.13
2023-03-03T21:06:04.219Z,4.43
2023-03-03T21:08:49.744Z,4.93
2023-03-03T21:11:19.502Z,6.05
2023-03-03T21:13:54.241Z,4.90
2023-03-03T21:16:21.265Z,5.03
2023-03-03T21:19:09.022Z,5.45
2023-03-03T21:21:38.539Z,4.30
2023-03-03T21:24:06.475Z,5.30
2023-03-03T21:26:59.300Z,5.72
2023-03-03T21:29:31.942Z,4.18
2023-03-03T21:32:00.899Z,4.70
2023-03-03T21:34:41.746Z,4.60
2023-03-03T21:37:15.498Z,5.30
2023-03-03T21:39:43.783Z,5.25
2023-03-03T21:42:18.792Z,6.10
2023-03-03T21:47:15.331Z,4.95
2023-03-03T21:49:43.993Z,5.30
2023-03-03T21:52:12.461Z,5.60
2023-03-03T21:55:01.144Z,6.30
2023-03-03T21:57:27.937Z,6.60
2023-03-03T21:59:54.769Z,6.68
2023-03-03T22:02:21.632Z,6.78
2023-03-03T22:04:48.422Z,6.68
2023-03-03T22:07:15.235Z,6.38
2023-03-03T22:09:42.091Z,5.72
2023-03-03T22:12:08.842Z,5.93
2023-03-03T22:14:35.678Z,6.05
2023-03-03T22:17:02.937Z,5.63
2023-03-03T22:19:29.831Z,6.60
2023-03-03T22:21:57.075Z,6.70
2023-03-03T22:24:23.837Z,5.10
2023-03-03T22:26:50.617Z,7.10
2023-03-03T22:29:22.661Z,6.47
2023-03-03T22:31:50.717Z,5.78
2023-03-03T22:34:17.728Z,7.97
2023-03-03T22:36:44.556Z,6.07
2023-03-03T22:39:11.329Z,6.40
2023-03-03T22:41:38.125Z,6.05
2023-03-03T22:44:05.059Z,6.60
2023-03-03T22:46:31.878Z,5.57
2023-03-03T22:48:58.669Z,5.65
2023-03-03T22:51:26.168Z,6.93
2023-03-03T22:53:53.076Z,6.40
2023-03-03T22:56:19.840Z,5.97
2023-03-03T22:58:46.596Z,5.50
2023-03-03T23:01:13.357Z,5.60
2023-03-03T23:03:40.328Z,5.13
2023-03-03T23:06:07.270Z,6.28
2023-03-03T23:08:34.068Z,5.20
2023-03-03T23:11:00.959Z,6.88
2023-03-03T23:13:27.738Z,5.97
2023-03-03T23:15:58.422Z,6.07
2023-03-03T23:18:25.627Z,6.22
2023-03-03T23:20:52.513Z,5.40
2023-03-03T23:23:19.242Z,5.68
2023-03-03T23:25:46.074Z,5.75
2023-03-03T23:28:15.612Z,6.05
2023-03-03T23:30:43.051Z,5.68
2023-03-03T23:33:09.998Z,6.28
2023-03-03T23:35:36.838Z,5.55
2023-03-03T23:38:03.689Z,5.43
2023-03-03T23:40:30.504Z,5.40
2023-03-03T23:42:57.282Z,4.80
2023-03-03T23:45:24.112Z,5.45
2023-03-03T23:47:50.871Z,5.53
2023-03-03T23:50:17.822Z,4.35
2023-03-03T23:52:44.693Z,4.80
2023-03-03T23:55:11.553Z,4.45
2023-03-03T23:57:38.459Z,4.35
